Time;durP1;ratioP1;P1;durP2;ratioP2;P2;SDS_P1;SDS_P2;PMS_P1;PMS_P2;Temp;Humidity;BMP_temperature;BMP_pressure;BME280_temperature;BME280_humidity;BME280_pressure;Samples;Min_cycle;Max_cycle;Signal;HPM_P1;HPM_P2
2023/10/02 00:00:30;;;;;;;2.22;1.40;;;18.70;71.00;;;;;;6122663;23;20168;-83
2023/10/02 00:02:56;;;;;;;3.38;1.30;;;18.70;71.30;;;;;;6120232;23;20333;-83
2023/10/02 00:05:40;;;;;;;2.15;1.33;;;18.60;71.30;;;;;;6120510;23;20143;-82
2023/10/02 00:08:06;;;;;;;1.85;1.27;;;18.60;71.10;;;;;;6120365;23;20159;-84
2023/10/02 00:10:32;;;;;;;2.90;1.48;;;18.60;71.10;;;;;;6121867;23;20141;-83
2023/10/02 00:12:59;;;;;;;2.28;1.40;;;18.60;71.00;;;;;;6120128;23;20140;-82
2023/10/02 00:15:25;;;;;;;2.22;1.40;;;18.60;71.00;;;;;;6072689;23;20163;-80
2023/10/02 00:17:51;;;;;;;1.85;1.00;;;18.60;71.00;;;;;;6120187;23;20465;-82
2023/10/02 00:20:26;;;;;;;1.55;1.05;;;18.50;71.00;;;;;;6095929;23;20180;-82
2023/10/02 00:22:52;;;;;;;2.25;1.30;;;18.60;71.00;;;;;;6097890;23;20238;-82
2023/10/02 00:25:19;;;;;;;2.03;1.17;;;18.60;71.10;;;;;;6095672;23;20211;-85
2023/10/02 00:27:50;;;;;;;2.63;1.20;;;18.60;71.20;;;;;;6120243;23;20158;-81
2023/10/02 00:30:16;;;;;;;2.95;1.50;;;18.60;71.20;;;;;;6096776;23;20149;-86
2023/10/02 00:32:43;;;;;;;2.13;1.27;;;18.60;71.20;;;;;;6120584;23;20144;-83
2023/10/02 00:35:10;;;;;;;2.55;1.42;;;18.60;71.20;;;;;;6119987;23;20591;-82
2023/10/02 00:37:43;;;;;;;2.45;1.48;;;18.50;71.20;;;;;;6095988;23;20156;-84
2023/10/02 00:40:20;;;;;;;2.55;1.27;;;18.60;71.30;;;;;;6120185;23;20172;-87
2023/10/02 00:42:55;;;;;;;2.00;1.08;;;18.60;71.50;;;;;;6120286;23;20135;-83
2023/10/02 00:45:24;;;;;;;3.00;1.20;;;18.60;71.30;;;;;;6121607;23;20139;-86
2023/10/02 00:47:50;;;;;;;1.80;1.15;;;18.60;71.30;;;;;;6095599;23;20183;-85
2023/10/02 00:50:24;;;;;;;1.80;1.17;;;18.60;71.30;;;;;;6120152;23;20152;-84
2023/10/02 00:53:05;;;;;;;2.03;1.20;;;18.60;71.40;;;;;;6119202;23;20160;-83
2023/10/02 00:55:32;;;;;;;2.85;1.38;;;18.60;71.40;;;;;;6119746;22;20203;-80
2023/10/02 00:58:01;;;;;;;1.85;1.23;;;18.50;71.40;;;;;;6095845;23;20479;-86
2023/10/02 01:00:31;;;;;;;2.40;1.48;;;18.60;71.50;;;;;;6119902;23;20318;-84
2023/10/02 01:02:58;;;;;;;2.30;1.30;;;18.60;71.60;;;;;;6096783;23;20219;-81
2023/10/02 01:08:03;;;;;;;2.05;1.20;;;18.60;71.50;;;;;;6121499;23;20139;-82
2023/10/02 01:10:30;;;;;;;3.50;1.77;;;18.60;71.50;;;;;;6121369;23;20218;-83
2023/10/02 01:13:01;;;;;;;2.30;1.20;;;18.50;71.40;;;;;;6095772;23;20151;-80
2023/10/02 01:15:28;;;;;;;1.90;1.20;;;18.60;71.50;;;;;;6096542;23;20143;-81
2023/10/02 01:17:54;;;;;;;2.67;1.35;;;18.60;71.60;;;;;;6071641;23;20235;-83
2023/10/02 01:20:21;;;;;;;1.95;1.38;;;18.60;71.60;;;;;;6120006;23;20645;-83
2023/10/02 01:22:51;;;;;;;3.15;1.35;;;18.50;71.50;;;;;;6121366;23;20143;-83
2023/10/02 01:25:20;;;;;;;2.55;1.38;;;18.50;71.50;;;;;;6097233;23;20151;-84
2023/10/02 01:27:47;;;;;;;2.65;1.40;;;18.50;71.50;;;;;;6122570;23;20151;-84
2023/10/02 01:30:15;;;;;;;2.05;1.27;;;18.50;71.60;;;;;;6096765;23;20779;-83
2023/10/02 01:35:46;;;;;;;2.25;1.38;;;18.50;71.60;;;;;;6122367;23;20467;-83
2023/10/02 01:38:33;;;;;;;1.75;1.20;;;18.50;71.60;;;;;;6097357;23;20137;-83
2023/10/02 01:41:06;;;;;;;2.55;1.60;;;18.60;71.70;;;;;;6121214;23;20146;-82
2023/10/02 01:43:38;;;;;;;1.63;1.00;;;18.50;71.80;;;;;;6122474;23;20132;-84
2023/10/02 01:46:05;;;;;;;2.13;1.30;;;18.50;71.80;;;;;;6120913;23;20137;-83
2023/10/02 01:48:40;;;;;;;2.55;1.50;;;18.50;71.80;;;;;;6122357;23;20136;-85
2023/10/02 01:53:56;;;;;;;1.73;1.30;;;18.50;71.80;;;;;;6121512;23;20132;-82
2023/10/02 01:56:27;;;;;;;2.05;1.25;;;18.50;71.70;;;;;;6096510;23;20647;-82
2023/10/02 01:58:53;;;;;;;3.63;1.45;;;18.50;71.70;;;;;;6121351;23;20160;-85
2023/10/02 02:01:20;;;;;;;2.10;1.23;;;18.50;71.70;;;;;;6120706;23;20174;-81
2023/10/02 02:03:48;;;;;;;2.55;1.60;;;18.60;71.80;;;;;;6072652;23;20228;-84
2023/10/02 02:06:20;;;;;;;2.67;1.30;;;18.50;71.80;;;;;;6121080;23;20576;-82
2023/10/02 02:08:49;;;;;;;2.00;1.25;;;18.50;71.80;;;;;;6097396;23;20144;-83
2023/10/02 02:11:20;;;;;;;2.58;1.30;;;18.50;71.80;;;;;;6120734;23;20148;-84
2023/10/02 02:13:47;;;;;;;2.13;1.15;;;18.60;71.90;;;;;;6120941;23;20190;-85
2023/10/02 02:16:15;;;;;;;2.38;1.10;;;18.50;71.80;;;;;;6096364;23;20144;-84
2023/10/02 02:18:43;;;;;;;1.98;1.27;;;18.50;71.80;;;;;;6122252;23;20588;-83
2023/10/02 02:21:15;;;;;;;1.88;1.20;;;18.50;71.80;;;;;;6120675;23;20182;-81
2023/10/02 02:23:41;;;;;;;3.22;1.17;;;18.50;71.80;;;;;;6096219;23;20147;-83
2023/10/02 02:26:08;;;;;;;2.30;1.58;;;18.50;71.90;;;;;;6120800;23;20159;-84
2023/10/02 02:28:43;;;;;;;1.92;1.13;;;18.50;71.90;;;;;;6096546;23;20145;-82
2023/10/02 02:31:29;;;;;;;2.03;1.25;;;18.50;71.90;;;;;;6120561;23;20478;-82
2023/10/02 02:33:58;;;;;;;2.13;1.27;;;18.50;71.90;;;;;;6120804;23;20602;-83
2023/10/02 02:36:26;;;;;;;1.90;1.13;;;18.50;71.90;;;;;;6121867;23;20128;-84
2023/10/02 02:41:44;;;;;;;3.45;1.50;;;18.50;71.90;;;;;;6121061;23;20141;-85
2023/10/02 02:44:35;;;;;;;3.30;1.33;;;18.50;71.90;;;;;;6121267;23;20140;-83
2023/10/02 02:46:56;;;;;;;2.33;1.30;;;18.50;71.90;;;;;;6121418;23;20156;-84
2023/10/02 02:49:25;;;;;;;2.50;1.50;;;18.50;71.90;;;;;;6121249;23;20145;-84
2023/10/02 02:51:55;;;;;;;2.38;1.30;;;18.50;72.00;;;;;;6096901;23;20476;-82
2023/10/02 02:54:28;;;;;;;2.00;1.42;;;18.50;72.10;;;;;;6120820;23;20141;-83
2023/10/02 02:56:58;;;;;;;2.97;1.40;;;18.60;72.10;;;;;;6222071;22;20207;-82
2023/10/02 02:59:27;;;;;;;2.13;1.45;;;18.50;72.00;;;;;;6120918;23;20213;-81
2023/10/02 03:02:21;;;;;;;2.97;1.30;;;18.50;72.00;;;;;;6097097;23;20168;-84
2023/10/02 03:04:43;;;;;;;2.35;1.30;;;18.50;72.10;;;;;;6185820;23;20148;-82
2023/10/02 03:07:17;;;;;;;3.47;1.48;;;18.50;72.00;;;;;;6121211;23;20136;-83
2023/10/02 03:09:47;;;;;;;1.88;1.15;;;18.50;72.00;;;;;;6097997;23;20235;-85
2023/10/02 03:12:15;;;;;;;1.85;1.20;;;18.40;72.00;;;;;;6198222;23;20174;-81
2023/10/02 03:14:43;;;;;;;1.60;1.10;;;18.50;72.10;;;;;;6121027;23;20568;-83
2023/10/02 03:19:56;;;;;;;2.17;1.40;;;18.50;72.10;;;;;;6121433;23;20172;-80
2023/10/02 03:22:24;;;;;;;2.83;1.40;;;18.50;72.10;;;;;;6172298;23;20163;-82
2023/10/02 03:24:53;;;;;;;1.90;1.20;;;18.50;72.20;;;;;;6120796;23;20481;-84
2023/10/02 03:27:24;;;;;;;2.85;1.30;;;18.50;72.30;;;;;;6122469;23;20140;-85
2023/10/02 03:29:49;;;;;;;2.05;1.33;;;18.50;72.10;;;;;;6198074;23;20152;-81
2023/10/02 03:32:15;;;;;;;1.92;1.35;;;18.50;72.30;;;;;;6121171;23;20206;-83
2023/10/02 03:34:48;;;;;;;2.08;1.35;;;18.50;72.30;;;;;;6121060;23;20186;-84
2023/10/02 03:37:15;;;;;;;1.92;1.13;;;18.50;72.30;;;;;;6120858;23;20133;-82
2023/10/02 03:42:28;;;;;;;1.45;0.98;;;18.50;72.40;;;;;;6121185;23;20137;-84
2023/10/02 03:44:56;;;;;;;2.47;1.38;;;18.50;72.30;;;;;;6196236;23;20523;-84
2023/10/02 03:47:23;;;;;;;2.38;1.23;;;18.50;72.30;;;;;;6096603;23;20161;-87
2023/10/02 03:49:49;;;;;;;2.55;1.40;;;18.50;72.40;;;;;;6121079;23;20187;-81
2023/10/02 03:52:17;;;;;;;2.28;1.27;;;18.50;72.40;;;;;;6095740;23;20195;-85
2023/10/02 03:54:44;;;;;;;2.35;1.35;;;18.40;72.30;;;;;;6073111;22;20159;-83
2023/10/02 03:57:36;;;;;;;1.83;1.05;;;18.50;72.30;;;;;;6101473;23;20159;-83
2023/10/02 03:59:57;;;;;;;2.35;1.38;;;18.50;72.40;;;;;;6129722;23;20269;-85
2023/10/02 04:02:30;;;;;;;2.33;1.25;;;18.40;72.30;;;;;;6102008;23;20147;-85
2023/10/02 04:04:56;;;;;;;2.38;1.27;;;18.50;72.20;;;;;;6152175;23;20155;-83
2023/10/02 04:07:24;;;;;;;1.83;1.10;;;18.40;72.20;;;;;;6101554;23;20140;-81
2023/10/02 04:09:52;;;;;;;2.67;1.50;;;18.50;72.20;;;;;;6102029;23;20222;-81
2023/10/02 04:12:22;;;;;;;3.30;1.40;;;18.40;72.20;;;;;;6125314;23;20151;-83
2023/10/02 04:14:48;;;;;;;3.00;1.42;;;18.50;72.30;;;;;;6177612;23;20190;-83
2023/10/02 04:19:51;;;;;;;3.35;1.35;;;18.40;72.40;;;;;;6198514;23;20189;-82
2023/10/02 04:22:19;;;;;;;1.92;1.25;;;18.40;72.50;;;;;;6202396;23;20159;-83
2023/10/02 04:24:53;;;;;;;2.10;1.30;;;18.50;72.70;;;;;;6101491;23;20147;-85
2023/10/02 04:30:24;;;;;;;2.30;1.38;;;18.40;72.60;;;;;;6112547;23;20157;-81
2023/10/02 04:32:51;;;;;;;2.10;1.20;;;18.40;72.70;;;;;;6151730;22;20136;-83
2023/10/02 04:38:07;;;;;;;2.40;1.45;;;18.40;72.60;;;;;;6129624;23;20579;-83
2023/10/02 04:40:38;;;;;;;2.15;1.30;;;18.30;72.70;;;;;;6151422;23;20595;-82
2023/10/02 04:45:52;;;;;;;2.10;1.23;;;18.40;72.80;;;;;;6109548;23;20132;-83
2023/10/02 04:48:27;;;;;;;1.70;1.08;;;18.40;72.70;;;;;;6125612;23;20154;-81
2023/10/02 04:50:59;;;;;;;2.20;1.10;;;18.40;72.70;;;;;;6102747;23;20147;-84
2023/10/02 04:53:28;;;;;;;2.63;1.30;;;18.30;72.60;;;;;;6173886;23;20586;-85
2023/10/02 04:56:07;;;;;;;2.30;1.30;;;18.40;72.80;;;;;;6076567;23;20187;-85
2023/10/02 04:58:36;;;;;;;2.70;1.13;;;18.40;72.90;;;;;;6103040;23;20174;-84
2023/10/02 05:01:24;;;;;;;2.13;1.30;;;18.40;72.90;;;;;;6101701;23;20482;-82
2023/10/02 05:03:52;;;;;;;2.28;1.20;;;18.40;73.00;;;;;;6108967;23;20151;-83
2023/10/02 05:06:39;;;;;;;2.10;1.23;;;18.40;72.90;;;;;;6201714;23;20155;-84
2023/10/02 05:09:20;;;;;;;1.95;1.20;;;18.40;73.00;;;;;;6129987;23;20189;-85
2023/10/02 05:14:34;;;;;;;1.80;1.23;;;18.40;72.90;;;;;;6129123;23;20167;-86
2023/10/02 05:17:16;;;;;;;2.85;1.42;;;18.40;72.90;;;;;;6126186;23;20136;-83
2023/10/02 05:22:24;;;;;;;2.35;1.20;;;18.40;72.90;;;;;;6127704;23;20142;-83
2023/10/02 05:24:58;;;;;;;2.65;1.17;;;18.30;72.80;;;;;;6100843;23;20144;-82
2023/10/02 05:27:29;;;;;;;3.58;1.48;;;18.40;72.90;;;;;;6125256;23;20623;-82
2023/10/02 05:29:58;;;;;;;2.38;1.23;;;18.40;72.90;;;;;;6101055;23;20147;-86
2023/10/02 05:32:31;;;;;;;1.88;1.10;;;18.40;72.80;;;;;;6125225;23;20166;-81
2023/10/02 05:34:59;;;;;;;1.63;1.05;;;18.40;72.70;;;;;;6151223;22;20463;-87
2023/10/02 05:37:30;;;;;;;2.20;1.48;;;18.40;72.70;;;;;;6125164;23;20163;-86
2023/10/02 05:40:32;;;;;;;1.90;1.23;;;18.40;72.80;;;;;;6124657;23;20491;-83
2023/10/02 05:42:53;;;;;;;2.08;1.20;;;18.40;72.50;;;;;;6128989;23;20630;-79
2023/10/02 05:48:01;;;;;;;1.83;1.08;;;18.50;72.00;;;;;;6106242;23;20136;-83
2023/10/02 05:50:32;;;;;;;2.28;1.10;;;18.50;71.70;;;;;;6125052;23;20140;-85
2023/10/02 05:52:57;;;;;;;1.92;1.17;;;18.50;71.50;;;;;;6126100;23;20161;-83
2023/10/02 05:55:25;;;;;;;1.58;1.02;;;18.50;71.40;;;;;;6077193;23;20226;-84
2023/10/02 05:57:54;;;;;;;2.58;1.60;;;18.60;71.20;;;;;;6106838;23;20179;-82
2023/10/02 06:00:20;;;;;;;1.80;1.10;;;18.60;71.10;;;;;;6107211;23;20187;-85
2023/10/02 06:02:58;;;;;;;2.28;1.30;;;18.60;71.10;;;;;;6158763;22;20225;-84
2023/10/02 06:05:24;;;;;;;1.77;1.08;;;18.60;71.00;;;;;;6134125;23;20646;-83
2023/10/02 06:07:51;;;;;;;1.42;1.15;;;18.60;70.90;;;;;;6109234;23;20167;-82
2023/10/02 06:10:28;;;;;;;2.13;1.25;;;18.60;70.70;;;;;;6135242;23;20136;-83
2023/10/02 06:13:06;;;;;;;1.67;1.20;;;18.60;70.60;;;;;;6185676;23;20151;-82
2023/10/02 06:15:43;;;;;;;1.52;0.98;;;18.60;70.70;;;;;;6134139;23;20162;-85
2023/10/02 06:18:09;;;;;;;1.83;1.10;;;18.60;70.60;;;;;;6154680;23;20221;-85
2023/10/02 06:21:00;;;;;;;2.00;1.05;;;18.60;70.50;;;;;;6130433;23;20170;-86
2023/10/02 06:23:51;;;;;;;2.80;0.88;;;18.60;70.60;;;;;;6077970;23;20197;-85
2023/10/02 06:27:07;;;;;;;1.67;1.02;;;18.70;70.50;;;;;;6054544;23;20160;-87
2023/10/02 06:29:52;;;;;;;2.22;1.10;;;18.70;70.70;;;;;;6072729;23;20162;-84
2023/10/02 06:33:16;;;;;;;;;;;;;;;;;;;;;
2023/10/02 06:56:21;;;;;;;1.83;0.98;;;18.70;71.00;;;;;;5954192;23;20193;-83
2023/10/02 06:58:52;;;;;;;1.60;1.10;;;18.70;71.10;;;;;;5877020;24;20161;-79
2023/10/02 07:01:19;;;;;;;1.42;1.00;;;18.70;70.90;;;;;;5875650;24;20165;-80
2023/10/02 07:03:55;;;;;;;1.60;1.00;;;18.70;71.00;;;;;;5876044;24;20178;-85
2023/10/02 07:06:24;;;;;;;3.35;1.08;;;18.60;70.90;;;;;;5999334;23;20486;-79
2023/10/02 07:09:12;;;;;;;1.38;1.00;;;18.60;70.90;;;;;;6108822;23;20150;-84
2023/10/02 07:11:40;;;;;;;1.20;0.95;;;18.70;71.10;;;;;;6109545;23;20156;-84
2023/10/02 07:14:06;;;;;;;2.08;1.40;;;18.70;71.10;;;;;;6104752;23;20180;-86
2023/10/02 07:16:37;;;;;;;4.18;1.23;;;18.60;71.00;;;;;;6128952;23;20139;-82
2023/10/02 07:19:04;;;;;;;1.83;0.98;;;18.70;71.20;;;;;;6080506;23;20175;-83
2023/10/02 07:21:30;;;;;;;1.90;1.17;;;18.70;71.00;;;;;;6104890;23;20128;-84
2023/10/02 07:23:58;;;;;;;3.70;1.10;;;18.70;71.00;;;;;;6104673;23;20143;-81
2023/10/02 07:29:01;;;;;;;1.80;1.15;;;18.80;71.20;;;;;;6111334;23;20532;-81
2023/10/02 07:31:27;;;;;;;1.95;1.13;;;18.80;71.00;;;;;;6080363;23;20695;-84
2023/10/02 07:33:55;;;;;;;3.33;1.35;;;18.80;70.90;;;;;;6079536;23;20162;-83
2023/10/02 07:36:21;;;;;;;2.90;1.17;;;18.90;70.90;;;;;;6153310;22;20132;-81
2023/10/02 07:38:53;;;;;;;2.75;1.30;;;18.80;71.10;;;;;;6079126;23;20148;-85
2023/10/02 07:41:23;;;;;;;3.45;1.40;;;18.80;71.30;;;;;;6079973;23;20147;-81
2023/10/02 07:43:52;;;;;;;5.18;1.35;;;18.80;71.40;;;;;;6129161;23;20158;-81
2023/10/02 07:46:21;;;;;;;2.92;1.38;;;18.80;71.40;;;;;;6079913;23;20147;-82
2023/10/02 07:49:04;;;;;;;2.10;1.23;;;18.80;71.20;;;;;;6104054;23;20575;-84
2023/10/02 07:51:35;;;;;;;2.03;1.40;;;18.90;71.10;;;;;;6105050;23;20146;-84
2023/10/02 07:54:02;;;;;;;1.95;1.17;;;19.00;71.10;;;;;;6152503;22;20151;-82
2023/10/02 07:56:58;;;;;;;2.17;1.38;;;18.90;71.00;;;;;;6072553;23;20658;-80
2023/10/02 07:59:24;;;;;;;3.03;1.20;;;18.90;71.30;;;;;;6098755;23;20184;-82
2023/10/02 08:01:51;;;;;;;2.17;1.30;;;18.90;71.30;;;;;;6097591;23;20564;-83
2023/10/02 08:04:19;;;;;;;4.75;1.58;;;18.90;71.30;;;;;;6122682;23;20133;-82
2023/10/02 08:06:48;;;;;;;1.98;1.30;;;18.90;71.40;;;;;;6123286;23;20143;-83
2023/10/02 08:11:52;;;;;;;4.40;2.00;;;18.90;71.70;;;;;;6122882;23;20156;-82
2023/10/02 08:17:17;;;;;;;4.18;1.55;;;19.00;71.80;;;;;;6101606;23;20183;-83
2023/10/02 08:19:54;;;;;;;3.15;1.70;;;18.90;72.10;;;;;;6121674;23;20270;-83
2023/10/02 08:22:24;;;;;;;2.88;1.30;;;19.00;72.40;;;;;;6122567;23;20183;-83
2023/10/02 08:24:52;;;;;;;4.22;1.70;;;18.90;72.20;;;;;;6122909;23;20223;-83
2023/10/02 08:27:18;;;;;;;2.50;1.50;;;18.90;72.20;;;;;;6097819;23;20180;-83
2023/10/02 08:29:44;;;;;;;2.67;1.48;;;19.00;72.20;;;;;;6097467;23;20141;-82
2023/10/02 08:32:12;;;;;;;2.70;1.40;;;18.90;72.30;;;;;;6122081;23;20183;-82
2023/10/02 08:34:38;;;;;;;4.35;1.70;;;19.00;72.60;;;;;;6123603;23;20164;-80
2023/10/02 08:37:12;;;;;;;3.60;1.35;;;19.00;72.70;;;;;;6098780;23;20156;-84
2023/10/02 08:39:38;;;;;;;2.35;1.55;;;18.90;72.80;;;;;;6098861;23;20562;-83
2023/10/02 08:42:09;;;;;;;3.33;1.48;;;19.00;72.90;;;;;;6097435;23;20139;-80
2023/10/02 08:44:40;;;;;;;2.88;1.67;;;19.00;73.00;;;;;;6124391;23;20203;-85
2023/10/02 08:47:07;;;;;;;3.47;1.52;;;18.90;72.90;;;;;;6121971;23;20144;-82
2023/10/02 08:49:34;;;;;;;3.33;1.88;;;19.00;73.00;;;;;;6124558;23;20140;-85
2023/10/02 08:52:38;;;;;;;3.50;1.85;;;19.00;73.00;;;;;;6121221;23;20514;-82
2023/10/02 08:56:10;;;;;;;;;;;;;;;;;;;;;
2023/10/02 08:58:42;;;;;;;4.80;1.50;;;19.10;73.00;;;;;;6121318;23;20254;-80
2023/10/02 09:02:04;;;;;;;2.55;1.60;;;19.10;73.10;;;;;;6053448;23;20619;-83
2023/10/02 09:05:36;;;;;;;6.75;1.77;;;19.10;73.30;;;;;;6097676;23;20555;-83
2023/10/02 09:08:12;;;;;;;3.10;1.55;;;19.10;73.40;;;;;;6095037;23;20171;-81
2023/10/02 09:10:58;;;;;;;4.20;1.73;;;19.10;73.30;;;;;;6053354;23;20242;-80
2023/10/02 09:13:24;;;;;;;2.35;1.70;;;19.10;73.40;;;;;;6053942;23;20155;-82
2023/10/02 09:15:53;;;;;;;2.35;1.50;;;19.10;73.40;;;;;;6075031;23;20234;-84
2023/10/02 09:19:07;;;;;;;6.07;1.48;;;19.10;73.50;;;;;;6100124;23;20286;-85
2023/10/02 09:21:42;;;;;;;3.05;1.60;;;19.10;73.70;;;;;;6101289;23;20163;-85
2023/10/02 09:24:18;;;;;;;3.50;1.48;;;19.10;73.70;;;;;;6096677;23;20185;-83
2023/10/02 09:26:45;;;;;;;5.82;1.85;;;19.10;73.90;;;;;;6095457;23;20164;-83
2023/10/02 09:29:12;;;;;;;4.07;1.58;;;19.10;73.90;;;;;;6080570;23;20297;-82
2023/10/02 09:31:38;;;;;;;2.42;1.30;;;19.10;73.90;;;;;;6096673;23;20145;-84
2023/10/02 09:34:11;;;;;;;2.35;1.40;;;19.10;73.90;;;;;;6122557;23;20220;-84
2023/10/02 09:36:48;;;;;;;3.38;1.70;;;19.10;74.00;;;;;;6120328;23;20198;-83
2023/10/02 09:42:06;;;;;;;2.13;1.58;;;19.10;74.00;;;;;;6208055;23;20480;-85
2023/10/02 09:44:45;;;;;;;2.03;1.50;;;19.10;74.10;;;;;;6096753;23;20145;-81
2023/10/02 09:47:20;;;;;;;3.30;1.52;;;19.20;74.30;;;;;;6196502;23;20148;-84
2023/10/02 09:50:11;;;;;;;1.90;1.50;;;19.10;74.20;;;;;;6123018;23;20128;-86
2023/10/02 09:52:47;;;;;;;1.95;1.58;;;19.10;74.30;;;;;;6120907;23;20159;-86
2023/10/02 09:55:23;;;;;;;2.00;1.50;;;19.10;74.30;;;;;;6050294;23;20210;-84
2023/10/02 09:57:51;;;;;;;4.45;1.70;;;19.10;74.40;;;;;;6174424;23;20205;-86
2023/10/02 10:03:32;;;;;;;3.63;1.80;;;19.10;74.50;;;;;;6101448;23;20139;-86
2023/10/02 10:06:19;;;;;;;3.75;1.83;;;19.00;74.60;;;;;;6096663;23;20151;-84
2023/10/02 10:09:25;;;;;;;2.30;1.42;;;19.00;74.70;;;;;;6121457;23;20499;-87
2023/10/02 10:17:52;;;;;;;5.15;1.60;;;19.10;74.80;;;;;;6122447;23;20140;-84
2023/10/02 10:20:27;;;;;;;2.50;1.70;;;19.10;74.90;;;;;;6105574;23;20160;-81
2023/10/02 10:22:56;;;;;;;2.20;1.55;;;19.10;74.90;;;;;;6120871;23;20194;-84
2023/10/02 10:25:42;;;;;;;2.08;1.52;;;19.20;74.90;;;;;;6073383;23;20186;-82
2023/10/02 10:28:14;;;;;;;2.72;1.70;;;19.20;75.00;;;;;;6120926;23;20144;-83
2023/10/02 10:30:42;;;;;;;2.88;1.80;;;19.20;75.20;;;;;;6121070;23;20136;-84
2023/10/02 10:33:33;;;;;;;2.22;1.50;;;19.20;75.20;;;;;;6120683;23;20551;-83
2023/10/02 10:36:02;;;;;;;2.53;1.60;;;19.10;75.30;;;;;;6219443;23;20161;-85
2023/10/02 10:38:36;;;;;;;3.13;1.80;;;19.20;75.30;;;;;;6219421;23;20150;-84
2023/10/02 10:41:14;;;;;;;2.03;1.55;;;19.20;75.30;;;;;;6195279;23;20191;-82
2023/10/02 10:46:29;;;;;;;2.90;1.60;;;19.20;75.50;;;;;;6244287;23;20214;-84
2023/10/02 10:48:59;;;;;;;2.53;1.63;;;19.20;75.60;;;;;;6243785;23;20137;-83
2023/10/02 10:51:27;;;;;;;3.38;1.70;;;19.20;75.80;;;;;;6244186;23;20228;-84
2023/10/02 10:54:18;;;;;;;2.35;1.63;;;19.20;75.80;;;;;;6217839;23;20160;-85
2023/10/02 10:56:55;;;;;;;2.58;1.75;;;19.20;75.90;;;;;;6217923;23;20235;-81
2023/10/02 10:59:24;;;;;;;2.72;1.80;;;19.20;76.80;;;;;;6241505;23;20172;-84
2023/10/02 11:04:34;;;;;;;2.58;1.80;;;19.20;76.20;;;;;;6243283;23;20130;-82
2023/10/02 11:07:19;;;;;;;3.45;1.77;;;19.20;76.20;;;;;;6177301;23;20543;-81
2023/10/02 11:10:12;;;;;;;3.50;1.67;;;19.20;76.50;;;;;;6100115;23;20145;-86
2023/10/02 11:12:37;;;;;;;4.80;1.67;;;19.20;76.60;;;;;;6120573;23;20604;-82
2023/10/02 11:15:15;;;;;;;2.05;1.58;;;19.20;77.00;;;;;;6121712;23;20137;-80
2023/10/02 11:17:42;;;;;;;2.30;1.80;;;19.20;76.80;;;;;;6120492;23;20152;-80
2023/10/02 11:20:09;;;;;;;1.98;1.50;;;19.20;76.70;;;;;;6072871;23;20213;-82
2023/10/02 11:22:48;;;;;;;2.08;1.63;;;19.20;77.00;;;;;;6120506;23;20476;-82
2023/10/02 11:25:22;;;;;;;2.67;1.70;;;19.30;77.20;;;;;;6120410;23;20263;-84
2023/10/02 11:27:56;;;;;;;2.25;1.63;;;19.20;77.00;;;;;;6097895;23;20231;-82
2023/10/02 11:30:31;;;;;;;2.35;1.67;;;19.20;77.20;;;;;;6120501;23;20155;-85
2023/10/02 11:33:04;;;;;;;3.05;1.85;;;19.30;77.20;;;;;;6098097;23;20575;-84
2023/10/02 11:35:37;;;;;;;2.28;1.60;;;19.30;77.60;;;;;;6123289;23;20137;-82
2023/10/02 11:38:03;;;;;;;2.63;1.67;;;19.30;77.50;;;;;;6099437;23;20153;-84
2023/10/02 11:40:29;;;;;;;2.58;1.90;;;19.20;77.60;;;;;;6103610;23;20207;-82
2023/10/02 11:42:59;;;;;;;2.50;1.70;;;19.30;77.60;;;;;;6128249;23;20136;-81
2023/10/02 11:45:26;;;;;;;2.22;1.58;;;19.20;78.30;;;;;;6103452;23;20144;-82
2023/10/02 11:47:53;;;;;;;3.00;1.80;;;19.20;78.50;;;;;;6130582;23;20163;-83
2023/10/02 11:50:18;;;;;;;3.58;1.75;;;19.10;78.50;;;;;;6129880;23;20163;-81
2023/10/02 11:52:45;;;;;;;3.08;1.80;;;19.10;79.70;;;;;;6121108;23;20467;-83
2023/10/02 11:55:17;;;;;;;3.15;1.90;;;19.10;79.00;;;;;;6121723;23;20148;-82
2023/10/02 11:57:44;;;;;;;3.13;1.55;;;19.10;79.20;;;;;;6120295;23;20195;-84
2023/10/02 12:00:12;;;;;;;2.47;1.90;;;19.00;80.20;;;;;;6121610;23;20176;-82
2023/10/02 12:02:40;;;;;;;2.33;1.42;;;19.00;79.60;;;;;;6120489;23;20228;-83
2023/10/02 12:05:07;;;;;;;1.92;1.60;;;19.00;79.90;;;;;;6197189;23;20580;-82
2023/10/02 12:07:33;;;;;;;1.80;1.45;;;19.00;80.00;;;;;;6121768;23;20139;-84
2023/10/02 12:10:00;;;;;;;2.22;1.80;;;19.00;80.10;;;;;;6121732;23;20145;-82
2023/10/02 12:12:27;;;;;;;2.47;1.85;;;19.00;80.40;;;;;;6122037;23;20194;-83
2023/10/02 12:14:54;;;;;;;2.50;1.88;;;18.90;80.50;;;;;;6120673;23;20148;-83
2023/10/02 12:17:21;;;;;;;2.60;1.50;;;19.00;80.70;;;;;;6122273;23;20168;-81
2023/10/02 12:19:48;;;;;;;2.20;1.55;;;19.00;80.90;;;;;;6120263;23;20192;-82
2023/10/02 12:22:14;;;;;;;1.73;1.60;;;18.90;80.80;;;;;;6120535;23;20155;-82
2023/10/02 12:24:41;;;;;;;2.03;1.60;;;18.90;80.90;;;;;;6120381;23;20214;-81
2023/10/02 12:27:10;;;;;;;1.80;1.35;;;19.00;81.20;;;;;;6121667;23;20211;-82
2023/10/02 12:29:36;;;;;;;2.55;1.90;;;18.90;82.10;;;;;;6120233;23;20137;-81
2023/10/02 12:32:03;;;;;;;2.83;1.80;;;19.00;81.20;;;;;;6119853;23;20219;-80
2023/10/02 12:34:29;;;;;;;3.15;1.50;;;19.00;81.40;;;;;;6121544;23;20487;-81
2023/10/02 12:36:54;;;;;;;1.52;1.42;;;19.00;81.80;;;;;;6121342;23;20132;-82
2023/10/02 12:39:22;;;;;;;2.58;1.90;;;18.90;81.90;;;;;;6120066;23;20168;-82
2023/10/02 12:41:48;;;;;;;2.10;1.77;;;18.90;81.80;;;;;;6121729;23;20129;-84
2023/10/02 12:44:16;;;;;;;2.28;1.60;;;18.90;82.00;;;;;;6120124;23;20152;-82
2023/10/02 12:46:43;;;;;;;2.53;1.65;;;18.90;82.10;;;;;;6120022;23;20576;-81
2023/10/02 12:49:14;;;;;;;2.53;1.70;;;18.90;82.20;;;;;;6096761;23;20202;-83
2023/10/02 12:51:41;;;;;;;2.28;1.50;;;18.90;82.60;;;;;;6121630;23;20139;-83
2023/10/02 12:54:07;;;;;;;2.50;1.83;;;18.90;82.50;;;;;;6119554;23;20140;-81
2023/10/02 12:56:33;;;;;;;1.70;1.50;;;18.90;82.50;;;;;;6120017;23;20230;-79
2023/10/02 12:58:59;;;;;;;1.77;1.50;;;18.90;82.70;;;;;;6120099;23;20187;-81
2023/10/02 13:01:27;;;;;;;2.65;1.70;;;19.00;82.70;;;;;;6095872;23;20148;-80
2023/10/02 13:03:54;;;;;;;1.88;1.67;;;18.90;82.60;;;;;;6119653;23;20489;-82
2023/10/02 13:06:20;;;;;;;1.65;1.55;;;18.90;82.70;;;;;;6120101;23;20148;-81
2023/10/02 13:08:46;;;;;;;2.42;1.85;;;18.90;82.80;;;;;;6120163;23;20206;-81
2023/10/02 13:11:18;;;;;;;2.50;1.80;;;18.90;83.00;;;;;;6095678;23;20576;-81
2023/10/02 13:13:47;;;;;;;2.90;1.75;;;18.90;83.00;;;;;;6073675;23;20206;-82
2023/10/02 13:16:13;;;;;;;2.80;1.83;;;18.90;83.00;;;;;;6071491;23;20213;-81
2023/10/02 13:18:45;;;;;;;2.10;1.60;;;18.90;83.00;;;;;;6121297;23;20137;-80
2023/10/02 13:21:14;;;;;;;2.60;1.75;;;18.90;83.30;;;;;;6119825;23;20140;-82
2023/10/02 13:23:46;;;;;;;1.92;1.60;;;18.90;83.20;;;;;;6094669;23;20886;-83
2023/10/02 13:26:16;;;;;;;2.03;1.52;;;18.90;83.40;;;;;;6196212;23;20179;-82
2023/10/02 13:28:47;;;;;;;1.88;1.60;;;18.90;83.30;;;;;;6122848;23;20136;-84
2023/10/02 13:31:18;;;;;;;2.42;1.90;;;18.90;83.30;;;;;;6121447;23;20129;-84
2023/10/02 13:33:47;;;;;;;2.25;1.63;;;18.90;83.50;;;;;;6122560;23;20133;-82
2023/10/02 13:36:14;;;;;;;2.58;1.80;;;18.90;83.60;;;;;;6097980;23;20575;-83
2023/10/02 13:38:42;;;;;;;2.08;1.80;;;18.90;83.50;;;;;;6099909;23;20159;-81
2023/10/02 13:41:09;;;;;;;1.60;1.50;;;18.90;83.90;;;;;;6175220;23;20563;-83
2023/10/02 13:43:37;;;;;;;1.98;1.70;;;18.90;83.70;;;;;;6096701;23;20183;-82
2023/10/02 13:46:08;;;;;;;2.47;1.55;;;19.00;83.80;;;;;;6121452;23;20144;-80
2023/10/02 13:48:34;;;;;;;2.33;1.60;;;18.90;83.80;;;;;;6121877;23;20133;-80
2023/10/02 13:51:02;;;;;;;2.03;1.63;;;18.90;83.80;;;;;;6123019;23;20193;-80
2023/10/02 13:53:28;;;;;;;2.67;1.70;;;19.00;83.80;;;;;;6119173;23;20639;-82
2023/10/02 13:55:53;;;;;;;2.35;1.90;;;18.90;83.80;;;;;;6096909;22;20180;-81
2023/10/02 13:58:19;;;;;;;1.98;1.65;;;19.00;83.70;;;;;;6100565;23;20600;-82
2023/10/02 14:00:48;;;;;;;2.40;1.98;;;19.00;83.70;;;;;;6124738;23;20251;-83
2023/10/02 14:03:15;;;;;;;2.13;1.58;;;19.00;83.80;;;;;;6100541;23;20147;-82
2023/10/02 14:05:41;;;;;;;2.03;1.52;;;18.90;83.90;;;;;;6125044;23;20185;-85
2023/10/02 14:08:07;;;;;;;2.42;1.98;;;18.90;84.00;;;;;;6124810;23;20139;-83
2023/10/02 14:10:32;;;;;;;2.03;1.80;;;18.90;84.00;;;;;;6100398;23;20160;-84
2023/10/02 14:12:58;;;;;;;2.28;1.95;;;18.90;84.10;;;;;;6124566;23;20237;-82
2023/10/02 14:15:25;;;;;;;2.17;1.80;;;19.00;84.10;;;;;;6150779;22;20147;-83
2023/10/02 14:17:50;;;;;;;2.33;2.00;;;18.90;84.10;;;;;;6100469;23;20132;-82
2023/10/02 14:20:16;;;;;;;2.60;1.98;;;18.90;84.20;;;;;;6125042;23;20257;-83
2023/10/02 14:22:47;;;;;;;2.63;2.00;;;18.90;84.20;;;;;;6124688;23;20478;-84
2023/10/02 14:25:16;;;;;;;3.63;1.90;;;18.90;84.30;;;;;;6102099;23;20128;-82
2023/10/02 14:27:42;;;;;;;2.65;1.83;;;18.90;84.30;;;;;;6102220;23;20241;-85
2023/10/02 14:30:12;;;;;;;2.10;1.80;;;18.90;84.40;;;;;;6124758;23;20140;-82
2023/10/02 14:32:46;;;;;;;2.25;1.92;;;18.90;84.40;;;;;;6126696;23;20201;-82